createdAt,value
2022-12-08T00:01:14.303Z,3.70
2022-12-08T00:03:41.320Z,3.47
2022-12-08T00:06:31.472Z,3.25
2022-12-08T00:09:16.238Z,3.72
2022-12-08T00:11:42.678Z,3.50
2022-12-08T00:14:09.003Z,4.10
2022-12-08T00:16:35.441Z,3.88
2022-12-08T00:19:01.786Z,4.68
2022-12-08T00:21:28.602Z,4.18
2022-12-08T00:23:56.070Z,3.15
2022-12-08T00:26:22.450Z,3.50
2022-12-08T00:28:48.894Z,4.40
2022-12-08T00:31:15.312Z,3.88
2022-12-08T00:33:41.845Z,3.22
2022-12-08T00:36:12.037Z,3.25
2022-12-08T00:38:39.105Z,3.13
2022-12-08T00:41:16.367Z,3.42
2022-12-08T00:43:43.101Z,3.95
2022-12-08T00:46:09.775Z,3.28
2022-12-08T00:48:36.245Z,3.70
2022-12-08T00:51:02.685Z,3.40
2022-12-08T00:53:32.310Z,4.15
2022-12-08T00:55:58.835Z,3.10
2022-12-08T00:58:25.208Z,3.35
2022-12-08T01:00:51.695Z,2.97
2022-12-08T01:03:18.141Z,3.65
2022-12-08T01:05:44.532Z,3.08
2022-12-08T01:08:11.156Z,3.85
2022-12-08T01:10:38.409Z,3.03
2022-12-08T01:13:04.956Z,3.20
2022-12-08T01:15:31.358Z,2.88
2022-12-08T01:17:57.690Z,2.22
2022-12-08T01:20:24.027Z,2.58
2022-12-08T01:22:50.357Z,2.80
2022-12-08T01:25:16.729Z,2.72
2022-12-08T01:27:43.081Z,2.20
2022-12-08T01:30:11.422Z,2.67
2022-12-08T01:32:37.738Z,2.40
2022-12-08T01:35:06.521Z,3.50
2022-12-08T01:37:32.873Z,2.00
2022-12-08T01:39:59.187Z,2.28
2022-12-08T01:42:25.624Z,1.92
2022-12-08T01:44:54.026Z,2.22
2022-12-08T01:47:20.889Z,1.83
2022-12-08T01:49:47.684Z,2.38
2022-12-08T01:52:33.642Z,2.55
2022-12-08T01:55:06.203Z,2.22
2022-12-08T01:57:43.485Z,2.38
2022-12-08T02:00:11.465Z,2.88
2022-12-08T02:03:01.213Z,2.40
2022-12-08T02:05:29.353Z,2.50
2022-12-08T02:07:57.131Z,2.40
2022-12-08T02:10:24.277Z,2.13
2022-12-08T02:12:51.743Z,2.60
2022-12-08T02:15:18.428Z,2.53
2022-12-08T02:17:47.531Z,2.30
2022-12-08T02:20:26.620Z,2.05
2022-12-08T02:23:07.684Z,2.10
2022-12-08T02:25:46.138Z,2.33
2022-12-08T02:28:15.603Z,1.83
2022-12-08T02:30:45.015Z,2.10
2022-12-08T02:33:29.952Z,2.05
2022-12-08T02:36:08.496Z,1.70
2022-12-08T02:38:38.299Z,1.83
2022-12-08T02:41:16.818Z,1.90
2022-12-08T02:43:45.371Z,1.55
2022-12-08T02:46:14.060Z,1.58
2022-12-08T02:48:41.725Z,1.58
2022-12-08T02:51:08.679Z,1.48
2022-12-08T02:53:35.647Z,2.28
2022-12-08T02:56:36.004Z,1.75
2022-12-08T02:59:02.353Z,1.85
2022-12-08T03:01:44.059Z,1.33
2022-12-08T03:04:32.592Z,1.40
2022-12-08T03:07:03.971Z,1.33
2022-12-08T03:09:40.836Z,1.48
2022-12-08T03:12:16.045Z,1.30
2022-12-08T03:14:45.399Z,1.30
2022-12-08T03:17:12.858Z,1.52
2022-12-08T03:19:42.177Z,1.33
2022-12-08T03:22:09.144Z,1.27
2022-12-08T03:24:39.461Z,1.35
2022-12-08T03:27:08.100Z,1.40
2022-12-08T03:29:34.730Z,1.45
2022-12-08T03:32:05.822Z,1.83
2022-12-08T03:34:32.465Z,1.40
2022-12-08T03:37:00.633Z,1.52
2022-12-08T03:39:27.045Z,1.60
2022-12-08T03:41:53.462Z,1.50
2022-12-08T03:44:19.838Z,1.27
2022-12-08T03:46:46.173Z,1.50
2022-12-08T03:49:12.524Z,1.27
2022-12-08T03:51:38.855Z,2.42
2022-12-08T03:54:08.280Z,1.77
2022-12-08T03:56:35.852Z,1.23
2022-12-08T03:59:02.753Z,1.77
2022-12-08T04:01:29.189Z,1.15
2022-12-08T04:03:55.630Z,1.08
2022-12-08T04:06:22.289Z,1.38
2022-12-08T04:08:49.227Z,2.03
2022-12-08T04:11:19.062Z,1.60
2022-12-08T04:13:45.727Z,1.10
2022-12-08T04:16:16.062Z,1.23
2022-12-08T04:18:42.468Z,1.55
2022-12-08T04:21:08.888Z,1.13
2022-12-08T04:23:35.242Z,1.20
2022-12-08T04:26:01.550Z,1.60
2022-12-08T04:28:29.474Z,1.20
2022-12-08T04:30:55.853Z,1.45
2022-12-08T04:33:22.247Z,1.15
2022-12-08T04:35:48.567Z,1.90
2022-12-08T04:38:14.981Z,1.35
2022-12-08T04:40:41.313Z,1.30
2022-12-08T04:43:07.672Z,1.75
2022-12-08T04:45:34.148Z,1.90
2022-12-08T04:48:01.149Z,1.08
2022-12-08T04:50:27.753Z,1.15
2022-12-08T04:52:54.242Z,1.40
2022-12-08T04:55:20.638Z,2.35
2022-12-08T04:57:47.027Z,1.92
2022-12-08T05:00:13.799Z,1.20
2022-12-08T05:02:40.339Z,1.20
2022-12-08T05:05:07.033Z,1.23
2022-12-08T05:07:33.395Z,1.77
2022-12-08T05:10:03.297Z,1.30
2022-12-08T05:12:29.979Z,1.20
2022-12-08T05:14:56.288Z,1.02
2022-12-08T05:17:22.660Z,1.42
2022-12-08T05:19:49.060Z,1.17
2022-12-08T05:22:15.755Z,1.38
2022-12-08T05:24:47.201Z,1.05
2022-12-08T05:27:14.145Z,1.17
2022-12-08T05:29:40.562Z,1.13
2022-12-08T05:32:06.931Z,1.50
2022-12-08T05:34:33.340Z,1.48
2022-12-08T05:36:59.695Z,1.63
2022-12-08T05:39:26.060Z,1.77
2022-12-08T05:41:52.407Z,1.38
2022-12-08T05:44:18.731Z,1.17
2022-12-08T05:46:45.054Z,1.40
2022-12-08T05:49:11.379Z,1.35
2022-12-08T05:51:37.735Z,1.15
2022-12-08T05:54:04.138Z,0.90
2022-12-08T05:56:30.513Z,1.20
2022-12-08T05:58:56.894Z,1.30
2022-12-08T06:01:24.713Z,1.13
2022-12-08T06:03:51.596Z,1.20
2022-12-08T06:06:17.998Z,1.00
2022-12-08T06:08:47.422Z,3.10
2022-12-08T06:11:21.179Z,2.15
2022-12-08T06:13:48.156Z,5.20
2022-12-08T06:16:14.597Z,6.70
2022-12-08T06:18:41.081Z,1.80
2022-12-08T06:21:08.651Z,4.22
2022-12-08T06:23:35.184Z,3.95
2022-12-08T06:26:02.574Z,1.38
2022-12-08T06:28:29.544Z,2.10
2022-12-08T06:30:56.015Z,2.42
2022-12-08T06:33:22.383Z,2.25
2022-12-08T06:35:48.707Z,2.45
2022-12-08T06:38:15.045Z,1.92
2022-12-08T06:40:41.503Z,1.80
2022-12-08T06:43:10.907Z,1.80
2022-12-08T06:45:37.336Z,1.67
2022-12-08T06:48:03.796Z,1.77
2022-12-08T06:50:30.143Z,1.50
2022-12-08T06:53:04.890Z,1.17
2022-12-08T06:58:18.687Z,1.83
2022-12-08T07:00:45.450Z,1.42
2022-12-08T07:03:12.431Z,2.20
2022-12-08T07:05:38.858Z,2.00
2022-12-08T07:08:07.022Z,1.40
2022-12-08T07:10:33.514Z,2.03
2022-12-08T07:12:59.842Z,4.05
2022-12-08T07:15:26.197Z,2.28
2022-12-08T07:17:57.912Z,1.85
2022-12-08T07:20:26.047Z,2.75
2022-12-08T07:22:52.702Z,8.80
2022-12-08T07:25:19.416Z,4.28
2022-12-08T07:27:46.078Z,2.00
2022-12-08T07:30:12.961Z,3.50
2022-12-08T07:32:39.781Z,1.92
2022-12-08T07:35:06.981Z,5.65
2022-12-08T07:37:35.547Z,2.47
2022-12-08T07:40:02.142Z,2.90
2022-12-08T07:42:28.796Z,2.88
2022-12-08T07:44:55.203Z,6.03
2022-12-08T07:47:21.519Z,5.30
2022-12-08T07:49:47.894Z,5.47
2022-12-08T07:52:14.240Z,2.78
2022-12-08T07:54:40.564Z,1.95
2022-12-08T07:57:06.915Z,2.45
2022-12-08T07:59:33.309Z,3.63
2022-12-08T08:02:21.343Z,2.38
2022-12-08T08:04:50.016Z,2.05
2022-12-08T08:07:16.479Z,2.03
2022-12-08T08:09:42.892Z,2.08
2022-12-08T08:12:30.332Z,1.55
2022-12-08T08:14:56.288Z,2.08
2022-12-08T08:17:22.778Z,2.92
2022-12-08T08:19:49.407Z,1.75
2022-12-08T08:22:15.755Z,1.63
2022-12-08T08:24:45.038Z,1.63
2022-12-08T08:27:12.132Z,2.30
2022-12-08T08:29:38.464Z,2.70
2022-12-08T08:32:05.218Z,2.28
2022-12-08T08:34:31.562Z,2.40
2022-12-08T08:36:58.069Z,2.80
2022-12-08T08:39:24.506Z,1.60
2022-12-08T08:41:50.988Z,1.80
2022-12-08T08:44:17.326Z,1.40
2022-12-08T08:46:43.815Z,1.77
2022-12-08T08:49:13.636Z,2.10
2022-12-08T08:51:40.097Z,2.72
2022-12-08T08:54:06.456Z,2.95
2022-12-08T08:56:32.833Z,3.13
2022-12-08T08:58:59.240Z,2.92
2022-12-08T09:01:26.818Z,2.20
2022-12-08T09:03:53.672Z,1.88
2022-12-08T09:06:20.225Z,2.00
2022-12-08T09:08:47.052Z,2.40
2022-12-08T09:11:13.509Z,1.95
2022-12-08T09:13:39.998Z,2.67
2022-12-08T09:16:07.676Z,2.03
2022-12-08T09:18:34.521Z,2.03
2022-12-08T09:21:08.463Z,1.98
2022-12-08T09:23:37.181Z,2.13
2022-12-08T09:26:04.984Z,2.80
2022-12-08T09:28:31.727Z,1.90
2022-12-08T09:30:58.098Z,2.13
2022-12-08T09:33:24.501Z,2.65
2022-12-08T09:35:50.861Z,3.83
2022-12-08T09:38:17.248Z,2.85
2022-12-08T09:40:53.906Z,2.45
2022-12-08T09:43:40.188Z,2.13
2022-12-08T09:46:10.823Z,2.20
2022-12-08T09:51:04.736Z,2.30
2022-12-08T09:53:35.679Z,1.88
2022-12-08T09:56:05.879Z,2.22
2022-12-08T09:58:48.971Z,2.13
2022-12-08T10:01:15.907Z,1.77
2022-12-08T10:03:43.560Z,2.10
2022-12-08T10:06:09.899Z,1.95
2022-12-08T10:08:58.922Z,2.05
2022-12-08T10:11:29.634Z,2.15
2022-12-08T10:16:33.430Z,2.15
2022-12-08T10:19:11.936Z,2.08
2022-12-08T10:21:39.170Z,2.08
2022-12-08T10:24:11.336Z,2.53
2022-12-08T10:26:40.887Z,1.85
2022-12-08T10:29:12.380Z,1.83
2022-12-08T10:31:38.921Z,2.58
2022-12-08T10:34:15.939Z,1.55
2022-12-08T10:36:49.851Z,1.75
2022-12-08T10:39:34.488Z,1.77
2022-12-08T10:42:24.212Z,1.83
2022-12-08T10:44:56.721Z,1.90
2022-12-08T10:47:24.777Z,2.10
2022-12-08T10:50:26.514Z,1.83
2022-12-08T10:53:10.774Z,1.42
2022-12-08T10:55:44.874Z,1.40
2022-12-08T10:58:28.023Z,1.50
2022-12-08T11:00:56.100Z,1.80
2022-12-08T11:03:24.940Z,1.25
2022-12-08T11:05:55.557Z,1.65
2022-12-08T11:08:21.938Z,1.58
2022-12-08T11:10:48.642Z,1.88
2022-12-08T11:13:35.224Z,2.10
2022-12-08T11:16:01.656Z,1.30
2022-12-08T11:18:39.260Z,1.60
2022-12-08T11:21:16.780Z,1.85
2022-12-08T11:23:47.045Z,1.67
2022-12-08T11:26:33.090Z,1.58
2022-12-08T11:28:59.522Z,1.67
2022-12-08T11:31:28.967Z,1.80
2022-12-08T11:33:55.978Z,1.60
2022-12-08T11:36:23.628Z,1.13
2022-12-08T11:38:52.114Z,1.83
2022-12-08T11:41:19.948Z,1.80
2022-12-08T11:43:52.100Z,1.40
2022-12-08T11:46:18.487Z,1.40
2022-12-08T11:48:47.626Z,1.10
2022-12-08T11:51:18.279Z,1.10
2022-12-08T11:53:59.729Z,1.02
2022-12-08T11:56:37.958Z,1.60
2022-12-08T11:59:22.924Z,1.08
2022-12-08T12:01:49.334Z,1.23
2022-12-08T12:04:31.848Z,1.30
2022-12-08T12:07:19.459Z,1.42
2022-12-08T12:10:08.299Z,1.50
2022-12-08T12:12:44.216Z,0.90
2022-12-08T12:15:22.899Z,1.15
2022-12-08T12:17:52.962Z,1.33
2022-12-08T12:20:28.067Z,3.53
2022-12-08T12:23:00.472Z,1.45
2022-12-08T12:25:27.511Z,1.75
2022-12-08T12:27:57.750Z,1.63
2022-12-08T12:30:26.319Z,1.95
2022-12-08T12:32:55.239Z,1.40
2022-12-08T12:35:32.255Z,1.83
2022-12-08T12:38:01.868Z,1.50
2022-12-08T12:40:29.267Z,1.27
2022-12-08T12:42:55.570Z,1.38
2022-12-08T12:45:21.921Z,1.67
2022-12-08T12:47:54.107Z,1.30
2022-12-08T12:50:34.560Z,1.52
2022-12-08T12:53:03.141Z,1.27
2022-12-08T12:55:49.622Z,0.80
2022-12-08T12:58:21.723Z,1.58
2022-12-08T13:00:48.083Z,0.88
2022-12-08T13:03:16.595Z,1.27
2022-12-08T13:05:48.551Z,1.20
2022-12-08T13:08:25.826Z,1.23
2022-12-08T13:11:00.918Z,1.10
2022-12-08T13:13:27.685Z,1.15
2022-12-08T13:15:55.825Z,1.20
2022-12-08T13:18:39.999Z,1.20
2022-12-08T13:21:09.524Z,0.90
2022-12-08T13:23:49.668Z,1.30
2022-12-08T13:26:17.932Z,1.48
2022-12-08T13:29:03.759Z,1.10
2022-12-08T13:31:53.516Z,1.00
2022-12-08T13:34:41.276Z,1.42
2022-12-08T13:37:13.822Z,1.08
2022-12-08T13:39:40.229Z,1.02
2022-12-08T13:42:12.904Z,1.00
2022-12-08T13:47:54.325Z,1.10
2022-12-08T13:59:08.818Z,1.00
2022-12-08T14:01:42.140Z,1.17
2022-12-08T14:04:37.581Z,1.33
2022-12-08T14:07:02.019Z,1.20
2022-12-08T14:09:32.332Z,0.88
2022-12-08T14:12:03.978Z,1.23
2022-12-08T14:15:02.577Z,1.10
2022-12-08T14:17:20.695Z,1.30
2022-12-08T14:19:53.081Z,1.10
2022-12-08T14:22:19.495Z,0.90
2022-12-08T14:24:49.388Z,1.10
2022-12-08T14:27:17.357Z,1.27
2022-12-08T14:29:52.181Z,1.52
2022-12-08T14:32:29.212Z,1.60
2022-12-08T14:34:58.580Z,1.42
2022-12-08T14:37:31.049Z,1.30
2022-12-08T14:39:59.236Z,1.33
2022-12-08T14:42:26.636Z,2.92
2022-12-08T14:44:57.725Z,1.38
2022-12-08T14:47:28.468Z,1.80
2022-12-08T14:52:21.287Z,1.50
2022-12-08T14:54:49.939Z,1.35
2022-12-08T14:57:16.366Z,1.60
2022-12-08T14:59:43.359Z,1.60
2022-12-08T15:02:15.817Z,1.60
2022-12-08T15:04:44.152Z,2.67
2022-12-08T15:07:13.257Z,1.42
2022-12-08T15:09:44.709Z,1.25
2022-12-08T15:12:14.098Z,1.40
2022-12-08T15:14:41.502Z,1.13
2022-12-08T15:17:26.799Z,1.88
2022-12-08T15:19:56.593Z,1.88
2022-12-08T15:22:23.050Z,1.30
2022-12-08T15:24:49.452Z,1.30
2022-12-08T15:27:20.108Z,1.50
2022-12-08T15:29:47.402Z,1.55
2022-12-08T15:32:16.696Z,1.70
2022-12-08T15:34:44.221Z,1.45
2022-12-08T15:37:23.904Z,1.65
2022-12-08T15:39:50.658Z,1.50
2022-12-08T15:42:17.223Z,1.70
2022-12-08T15:44:46.064Z,1.48
2022-12-08T15:47:16.534Z,1.50
2022-12-08T15:49:43.014Z,1.40
2022-12-08T15:52:13.972Z,1.48
2022-12-08T15:54:40.607Z,1.55
2022-12-08T15:57:48.789Z,1.60
2022-12-08T15:59:53.626Z,1.50
2022-12-08T16:02:22.801Z,1.90
2022-12-08T16:07:41.155Z,1.52
2022-12-08T16:10:08.556Z,1.60
2022-12-08T16:15:59.214Z,2.00
2022-12-08T16:18:27.504Z,1.30
2022-12-08T16:23:43.482Z,1.50
2022-12-08T16:28:58.562Z,1.30
2022-12-08T16:31:25.015Z,1.67
2022-12-08T16:33:52.363Z,1.52
2022-12-08T16:36:20.794Z,1.60
2022-12-08T16:38:47.105Z,1.80
2022-12-08T16:41:32.679Z,1.98
2022-12-08T16:44:01.074Z,2.05
2022-12-08T16:46:28.327Z,2.50
2022-12-08T16:48:54.932Z,2.33
2022-12-08T16:51:26.660Z,2.53
2022-12-08T16:53:53.564Z,2.05
2022-12-08T16:56:20.635Z,1.63
2022-12-08T16:58:47.251Z,1.55
2022-12-08T17:01:14.768Z,2.25
2022-12-08T17:03:41.631Z,2.30
2022-12-08T17:06:17.943Z,1.50
2022-12-08T17:08:44.635Z,2.05
2022-12-08T17:11:19.997Z,1.98
2022-12-08T17:13:46.460Z,1.77
2022-12-08T17:16:15.466Z,1.90
2022-12-08T17:18:41.944Z,1.95
2022-12-08T17:21:09.192Z,2.08
2022-12-08T17:23:38.790Z,2.00
2022-12-08T17:26:05.418Z,1.90
2022-12-08T17:28:59.033Z,1.70
2022-12-08T17:31:18.345Z,1.95
2022-12-08T17:33:45.881Z,1.65
2022-12-08T17:36:13.139Z,2.03
2022-12-08T17:38:39.847Z,1.77
2022-12-08T17:41:06.941Z,1.30
2022-12-08T17:43:33.869Z,1.70
2022-12-08T17:46:00.484Z,1.77
2022-12-08T17:48:27.200Z,1.60
2022-12-08T17:50:54.025Z,1.40
2022-12-08T17:53:20.651Z,2.17
2022-12-08T17:55:54.248Z,2.03
2022-12-08T17:58:20.916Z,2.20
2022-12-08T18:00:47.729Z,1.38
2022-12-08T18:03:14.836Z,1.50
2022-12-08T18:05:41.247Z,1.98
2022-12-08T18:08:07.803Z,1.95
2022-12-08T18:10:34.263Z,1.80
2022-12-08T18:13:00.602Z,1.30
2022-12-08T18:15:27.629Z,1.70
2022-12-08T18:17:53.976Z,1.88
2022-12-08T18:20:20.311Z,1.40
2022-12-08T18:22:46.757Z,2.58
2022-12-08T18:25:15.510Z,1.67
2022-12-08T18:27:43.363Z,2.05
2022-12-08T18:30:13.439Z,1.83
2022-12-08T18:32:40.011Z,1.58
2022-12-08T18:35:06.923Z,1.80
2022-12-08T18:37:34.243Z,1.50
2022-12-08T18:40:00.615Z,1.50
2022-12-08T18:42:30.079Z,1.38
2022-12-08T18:45:02.186Z,1.25
2022-12-08T18:47:28.846Z,1.38
2022-12-08T18:49:55.242Z,1.50
2022-12-08T18:52:27.063Z,1.60
2022-12-08T18:55:06.471Z,1.58
2022-12-08T18:57:33.632Z,1.33
2022-12-08T19:00:02.472Z,1.52
2022-12-08T19:02:32.038Z,1.10
2022-12-08T19:04:58.415Z,1.27
2022-12-08T19:07:24.844Z,1.23
2022-12-08T19:09:51.204Z,0.65
2022-12-08T19:12:17.610Z,1.35
2022-12-08T19:14:44.370Z,1.05
2022-12-08T19:17:10.692Z,1.08
2022-12-08T19:19:37.214Z,1.55
2022-12-08T19:22:03.605Z,1.25
2022-12-08T19:24:30.254Z,1.10
2022-12-08T19:26:56.626Z,1.38
2022-12-08T19:29:23.002Z,1.15
2022-12-08T19:31:49.536Z,1.00
2022-12-08T19:34:16.108Z,1.20
2022-12-08T19:36:42.945Z,1.10
2022-12-08T19:39:35.350Z,1.17
2022-12-08T19:42:20.105Z,1.10
2022-12-08T19:44:52.767Z,0.95
2022-12-08T19:47:20.096Z,1.10
2022-12-08T19:49:49.826Z,1.52
2022-12-08T19:52:16.603Z,1.00
2022-12-08T19:54:43.077Z,1.05
2022-12-08T19:57:10.752Z,0.98
2022-12-08T19:59:37.448Z,1.05
2022-12-08T20:02:04.219Z,1.15
2022-12-08T20:04:30.636Z,1.33
2022-12-08T20:07:00.137Z,0.95
2022-12-08T20:09:26.673Z,1.13
2022-12-08T20:11:54.741Z,1.55
2022-12-08T20:14:22.098Z,1.08
2022-12-08T20:16:48.681Z,1.50
2022-12-08T20:19:15.193Z,1.10
2022-12-08T20:21:41.627Z,0.70
2022-12-08T20:24:10.183Z,0.30
2022-12-08T20:26:36.712Z,0.85
2022-12-08T20:29:03.329Z,0.60
2022-12-08T20:31:30.723Z,0.43
2022-12-08T20:33:57.223Z,0.50
2022-12-08T20:36:23.968Z,0.40
2022-12-08T20:38:51.294Z,0.40
2022-12-08T20:41:18.465Z,0.40
2022-12-08T20:43:45.368Z,0.52
2022-12-08T20:46:13.010Z,0.40
2022-12-08T20:48:39.502Z,0.40
2022-12-08T20:51:06.256Z,0.47
2022-12-08T20:53:32.764Z,1.30
2022-12-08T20:55:59.212Z,0.50
2022-12-08T20:58:25.693Z,0.60
2022-12-08T21:00:52.405Z,0.80
2022-12-08T21:03:18.995Z,1.17
2022-12-08T21:05:49.654Z,0.70
2022-12-08T21:08:16.412Z,1.05
2022-12-08T21:10:44.156Z,1.00
2022-12-08T21:13:11.046Z,0.70
2022-12-08T21:15:37.880Z,0.95
2022-12-08T21:18:04.433Z,1.00
2022-12-08T21:20:31.226Z,1.10
2022-12-08T21:22:57.630Z,0.75
2022-12-08T21:25:24.074Z,0.93
2022-12-08T21:27:50.535Z,0.85
2022-12-08T21:30:17.257Z,1.40
2022-12-08T21:32:43.917Z,1.10
2022-12-08T21:35:10.744Z,1.05
2022-12-08T21:37:37.380Z,0.77
2022-12-08T21:40:07.129Z,1.70
2022-12-08T21:42:43.549Z,0.90
2022-12-08T21:45:17.668Z,1.33
2022-12-08T21:47:45.148Z,0.90
2022-12-08T21:50:12.409Z,1.02
2022-12-08T21:52:39.827Z,1.65
2022-12-08T21:55:06.637Z,0.77
2022-12-08T21:57:33.245Z,1.00
2022-12-08T21:59:59.647Z,1.20
2022-12-08T22:02:26.262Z,0.90
2022-12-08T22:04:53.076Z,1.00
2022-12-08T22:07:22.770Z,0.52
2022-12-08T22:09:49.439Z,1.05
2022-12-08T22:12:16.888Z,0.82
2022-12-08T22:14:43.828Z,0.50
2022-12-08T22:17:10.588Z,0.60
2022-12-08T22:19:37.569Z,0.65
2022-12-08T22:22:04.291Z,0.82
2022-12-08T22:24:33.610Z,0.73
2022-12-08T22:27:00.365Z,0.80
2022-12-08T22:29:26.959Z,0.50
2022-12-08T22:31:53.528Z,0.55
2022-12-08T22:34:20.077Z,0.50
2022-12-08T22:36:49.047Z,0.70
2022-12-08T22:39:15.562Z,0.60
2022-12-08T22:41:44.858Z,0.60
2022-12-08T22:44:12.430Z,0.70
2022-12-08T22:46:38.961Z,0.82
2022-12-08T22:49:05.808Z,0.65
2022-12-08T22:51:32.244Z,0.77
2022-12-08T22:53:58.624Z,0.45
2022-12-08T22:56:25.092Z,0.73
2022-12-08T22:58:51.694Z,0.80
2022-12-08T23:01:36.299Z,0.65
2022-12-08T23:04:03.060Z,0.95
2022-12-08T23:06:30.036Z,0.77
2022-12-08T23:08:59.931Z,0.85
2022-12-08T23:11:28.849Z,0.70
2022-12-08T23:13:56.349Z,0.70
2022-12-08T23:16:23.143Z,0.77
2022-12-08T23:18:49.610Z,0.82
2022-12-08T23:21:17.228Z,0.90
2022-12-08T23:23:44.130Z,0.60
2022-12-08T23:26:29.812Z,0.82
2022-12-08T23:28:56.884Z,0.60
2022-12-08T23:31:23.646Z,0.60
2022-12-08T23:33:50.369Z,1.13
2022-12-08T23:36:17.303Z,0.88
2022-12-08T23:38:43.925Z,0.80
2022-12-08T23:41:11.838Z,0.90
2022-12-08T23:43:38.230Z,0.73
2022-12-08T23:46:04.800Z,1.10
2022-12-08T23:48:34.496Z,0.88
2022-12-08T23:51:01.238Z,1.17
2022-12-08T23:53:29.316Z,1.02
2022-12-08T23:56:00.348Z,1.13
2022-12-08T23:58:26.947Z,1.05
